createdAt,value
2023-03-13T00:23:52.036Z,2.70
2023-03-13T00:29:15.747Z,2.70
2023-03-13T00:34:38.969Z,2.70
2023-03-13T00:40:04.635Z,2.70
2023-03-13T00:45:27.879Z,2.70
2023-03-13T00:50:54.127Z,2.80
2023-03-13T00:56:20.523Z,2.80
2023-03-13T01:01:43.726Z,2.80
2023-03-13T01:07:07.005Z,2.80
2023-03-13T01:12:32.082Z,2.80
2023-03-13T01:17:55.174Z,2.80
2023-03-13T01:23:18.352Z,2.90
2023-03-13T01:28:42.773Z,2.90
2023-03-13T01:34:07.266Z,2.90
2023-03-13T01:39:30.506Z,3.00
2023-03-13T01:44:57.693Z,3.00
2023-03-13T01:50:22.568Z,3.00
2023-03-13T01:56:01.019Z,3.00
2023-03-13T02:01:27.185Z,3.00
2023-03-13T02:06:56.285Z,3.00
2023-03-13T02:12:30.573Z,3.00
2023-03-13T02:17:56.145Z,3.00
2023-03-13T02:23:30.195Z,3.00
2023-03-13T02:28:55.155Z,3.00
2023-03-13T02:34:24.294Z,3.00
2023-03-13T02:39:51.073Z,3.10
2023-03-13T02:45:17.875Z,3.10
2023-03-13T02:50:41.135Z,3.10
2023-03-13T02:56:05.919Z,3.10
2023-03-13T03:01:31.217Z,3.10
2023-03-13T03:06:54.601Z,3.00
2023-03-13T03:12:17.871Z,3.00
2023-03-13T03:17:42.951Z,3.00
2023-03-13T03:23:06.298Z,3.00
2023-03-13T03:28:29.823Z,3.10
2023-03-13T03:33:57.422Z,3.10
2023-03-13T03:39:20.634Z,3.00
2023-03-13T03:44:44.224Z,3.00
2023-03-13T03:50:12.098Z,3.00
2023-03-13T03:55:45.556Z,3.00
2023-03-13T04:01:08.868Z,3.00
2023-03-13T04:06:34.278Z,3.00
2023-03-13T04:11:59.573Z,3.00
2023-03-13T04:17:23.019Z,3.00
2023-03-13T04:22:48.269Z,3.00
2023-03-13T04:28:12.801Z,3.00
2023-03-13T04:33:40.266Z,3.10
2023-03-13T04:39:26.999Z,3.10
2023-03-13T04:45:11.999Z,3.10
2023-03-13T04:50:59.439Z,3.10
2023-03-13T04:56:42.122Z,3.10
2023-03-13T05:02:32.101Z,3.10
2023-03-13T05:08:08.275Z,3.10
2023-03-13T05:13:40.224Z,3.10
2023-03-13T05:19:13.123Z,3.10
2023-03-13T05:24:56.562Z,3.10
2023-03-13T05:30:47.625Z,3.10
2023-03-13T05:36:30.634Z,3.20
2023-03-13T05:41:59.998Z,3.30
2023-03-13T05:47:43.137Z,3.20
2023-03-13T05:53:25.369Z,3.30
2023-03-13T05:58:54.495Z,3.30
2023-03-13T06:04:36.328Z,3.30
2023-03-13T06:09:59.548Z,3.40
2023-03-13T06:15:23.940Z,3.40
2023-03-13T06:20:58.335Z,3.50
2023-03-13T06:26:21.591Z,3.60
2023-03-13T06:31:44.861Z,3.60
2023-03-13T06:37:09.524Z,3.60
2023-03-13T06:42:33.618Z,3.70
2023-03-13T06:47:57.337Z,3.70
2023-03-13T06:53:22.554Z,3.80
2023-03-13T06:58:50.064Z,3.90
2023-03-13T07:05:04.781Z,4.00
2023-03-13T07:10:33.141Z,4.10
2023-03-13T07:16:06.372Z,4.20
2023-03-13T07:21:42.304Z,4.30
2023-03-13T07:27:30.134Z,4.30
2023-03-13T07:33:02.169Z,4.50
2023-03-13T07:38:38.337Z,4.60
2023-03-13T07:44:07.108Z,4.60
2023-03-13T07:49:30.633Z,4.70
2023-03-13T07:54:56.296Z,4.80
2023-03-13T08:00:57.531Z,4.90
2023-03-13T08:06:24.455Z,5.00
2023-03-13T08:12:10.332Z,5.10
2023-03-13T08:18:13.935Z,5.30
2023-03-13T08:24:03.843Z,5.40
2023-03-13T08:29:51.442Z,5.60
2023-03-13T09:02:28.079Z,6.40
2023-03-13T09:08:02.581Z,6.60
2023-03-13T09:14:03.419Z,6.80
2023-03-13T09:20:03.040Z,7.00
2023-03-13T09:46:03.038Z,7.50
2023-03-13T09:52:20.401Z,7.60
2023-03-13T09:57:53.880Z,7.80
2023-03-13T10:03:42.138Z,8.00
2023-03-13T10:09:20.157Z,8.10
2023-03-13T10:14:54.294Z,8.20
2023-03-13T10:20:31.109Z,8.30
2023-03-13T10:25:56.761Z,8.30
2023-03-13T10:31:32.555Z,8.40
2023-03-13T10:37:02.232Z,8.40
2023-03-13T10:42:33.119Z,8.40
2023-03-13T10:48:12.078Z,8.40
2023-03-13T10:53:38.406Z,8.40
2023-03-13T10:59:23.392Z,8.30
2023-03-13T11:04:52.427Z,8.30
2023-03-13T11:10:23.065Z,8.30
2023-03-13T11:15:56.383Z,8.20
2023-03-13T11:21:36.696Z,8.20
2023-03-13T11:27:26.904Z,8.20
2023-03-13T11:38:34.406Z,8.30
2023-03-13T12:53:44.510Z,8.50
2023-03-13T12:58:53.327Z,8.50
2023-03-13T13:04:02.193Z,8.50
2023-03-13T13:09:24.313Z,8.50
2023-03-13T13:15:01.433Z,8.50
2023-03-13T13:20:38.560Z,8.60
2023-03-13T13:25:43.089Z,8.70
2023-03-13T13:30:46.171Z,8.60
2023-03-13T13:36:31.378Z,8.70
2023-03-13T13:41:38.419Z,8.70
2023-03-13T13:46:45.679Z,8.70
2023-03-13T13:52:37.404Z,8.60
2023-03-13T13:58:05.000Z,8.60
2023-03-13T14:03:26.708Z,8.70
2023-03-13T14:08:34.104Z,8.80
2023-03-13T14:13:38.723Z,8.90
2023-03-13T14:24:21.227Z,9.00
2023-03-13T14:29:34.946Z,8.90
2023-03-13T14:34:41.110Z,8.90
2023-03-13T14:50:55.750Z,9.00
2023-03-13T14:56:15.770Z,9.00
2023-03-13T15:01:28.512Z,9.10
2023-03-13T15:06:32.952Z,9.20
2023-03-13T15:11:39.685Z,9.30
2023-03-13T15:16:43.656Z,9.20
2023-03-13T15:21:52.633Z,9.00
2023-03-13T15:26:55.139Z,9.00
2023-03-13T15:31:59.176Z,9.00
2023-03-13T15:37:01.742Z,9.10
2023-03-13T15:42:04.463Z,9.10
2023-03-13T15:47:11.967Z,9.10
2023-03-13T15:52:17.128Z,9.10
2023-03-13T15:57:24.215Z,9.10
2023-03-13T16:02:28.545Z,9.10
2023-03-13T16:07:31.120Z,9.10
2023-03-13T16:12:33.757Z,9.10
2023-03-13T16:17:37.782Z,9.00
2023-03-13T16:22:40.254Z,9.00
2023-03-13T16:27:45.420Z,9.10
2023-03-13T16:32:49.340Z,9.10
2023-03-13T16:37:51.900Z,9.00
2023-03-13T16:42:54.344Z,9.00
2023-03-13T16:47:58.824Z,9.10
2023-03-13T16:53:01.443Z,9.20
2023-03-13T16:58:05.045Z,9.20
2023-03-13T17:03:11.963Z,9.30
2023-03-13T17:08:14.731Z,9.30
2023-03-13T17:13:17.265Z,9.20
2023-03-13T17:18:21.171Z,9.30
2023-03-13T17:23:23.598Z,9.30
2023-03-13T17:28:29.073Z,9.20
2023-03-13T17:33:32.979Z,9.10
2023-03-13T17:38:38.116Z,9.10
2023-03-13T17:43:41.264Z,9.10
2023-03-13T17:48:46.804Z,9.10
2023-03-13T17:53:50.291Z,9.00
2023-03-13T17:58:56.868Z,9.00
2023-03-13T18:04:01.208Z,8.90
2023-03-13T18:09:07.789Z,8.90
2023-03-13T18:14:10.828Z,8.90
2023-03-13T18:19:19.980Z,8.80
2023-03-13T18:24:41.925Z,8.80
2023-03-13T18:29:45.982Z,8.80
2023-03-13T18:34:49.933Z,8.70
2023-03-13T18:39:52.761Z,8.70
2023-03-13T18:44:55.278Z,8.70
2023-03-13T18:49:59.663Z,8.70
2023-03-13T18:55:02.149Z,8.70
2023-03-13T19:00:17.591Z,8.60
2023-03-13T19:05:22.339Z,8.70
2023-03-13T19:10:28.656Z,8.60
2023-03-13T19:15:32.346Z,8.70
2023-03-13T19:20:36.256Z,8.70
2023-03-13T19:25:38.824Z,8.60
2023-03-13T19:30:41.388Z,8.70
2023-03-13T19:35:45.275Z,8.70
2023-03-13T19:40:47.832Z,8.70
2023-03-13T19:45:50.299Z,8.70
2023-03-13T19:50:54.653Z,8.70
2023-03-13T19:55:58.017Z,8.70
2023-03-13T20:01:14.926Z,8.70
2023-03-13T20:06:24.010Z,8.80
2023-03-13T20:11:28.193Z,8.80
2023-03-13T20:16:32.888Z,8.70
2023-03-13T20:21:38.384Z,8.70
2023-03-13T20:26:41.350Z,8.70
2023-03-13T20:31:44.218Z,8.70
2023-03-13T20:36:48.582Z,8.70
2023-03-13T20:41:51.196Z,8.80
2023-03-13T20:46:53.815Z,8.80
2023-03-13T20:51:57.876Z,8.80
2023-03-13T20:57:03.484Z,8.80
2023-03-13T21:02:06.417Z,8.80
2023-03-13T21:07:10.414Z,8.80
2023-03-13T21:12:12.955Z,8.90
2023-03-13T21:17:15.493Z,9.00
2023-03-13T21:22:19.928Z,9.00
2023-03-13T21:27:22.522Z,9.10
2023-03-13T21:32:25.321Z,9.00
2023-03-13T21:37:32.323Z,9.00
2023-03-13T21:42:35.028Z,9.10
2023-03-13T21:47:37.601Z,9.20
2023-03-13T21:52:41.606Z,9.30
2023-03-13T21:57:44.094Z,9.30
2023-03-13T22:02:46.542Z,9.30
2023-03-13T22:07:52.891Z,9.20
2023-03-13T22:12:58.234Z,9.30
2023-03-13T22:18:00.714Z,9.30
2023-03-13T22:23:04.894Z,9.40
2023-03-13T22:28:07.945Z,9.40
2023-03-13T22:33:10.686Z,9.40
2023-03-13T22:38:14.719Z,9.50
2023-03-13T22:43:17.163Z,9.50
2023-03-13T22:48:19.636Z,9.50
2023-03-13T22:53:23.632Z,9.60
2023-03-13T22:58:29.355Z,9.60
2023-03-13T23:03:31.862Z,9.60
2023-03-13T23:08:36.217Z,9.60
2023-03-13T23:13:38.792Z,9.60
2023-03-13T23:18:41.709Z,9.60
2023-03-13T23:23:45.778Z,9.60
2023-03-13T23:28:48.464Z,9.50
2023-03-13T23:33:51.047Z,9.50
2023-03-13T23:38:55.420Z,9.60
2023-03-13T23:43:58.699Z,9.60
2023-03-13T23:49:01.263Z,9.70
2023-03-13T23:54:05.324Z,9.70
2023-03-13T23:59:07.836Z,9.70
